Time;durP1;ratioP1;P1;durP2;ratioP2;P2;SDS_P1;SDS_P2;PMS_P1;PMS_P2;Temp;Humidity;BMP_temperature;BMP_pressure;BME280_temperature;BME280_humidity;BME280_pressure;Samples;Min_cycle;Max_cycle;Signal;HPM_P1;HPM_P2
2022/01/13 00:00:00;;;;;;;;;;;;;;;-2.20;60.47;101512.94;4432937;32;33979;-86
2022/01/13 00:02:32;;;;;;;;;;;;;;;-2.12;60.12;101512.56;4418571;32;33300;-87
2022/01/13 00:05:01;;;;;;;;;;;;;;;-2.09;60.24;101512.75;4432082;32;34286;-87
2022/01/13 00:07:30;;;;;;;;;;;;;;;-2.22;60.53;101521.25;4429446;32;34019;-84
2022/01/13 00:09:58;;;;;;;;;;;;;;;-2.34;60.75;101520.38;4435634;32;33149;-85
2022/01/13 00:12:32;;;;;;;;;;;;;;;-2.43;60.63;101526.59;4437472;32;32742;-84
2022/01/13 00:15:23;;;;;;;;;;;;;;;-2.44;60.63;101527.41;4431505;32;34173;-86
2022/01/13 00:18:04;;;;;;;;;;;;;;;-2.12;59.92;101528.69;4435146;32;34246;-85
2022/01/13 00:21:09;;;;;;;;;;;;;;;-2.11;59.58;101529.56;4445518;32;34271;-84
2022/01/13 00:23:43;;;;;;;;;;;;;;;-2.32;60.12;101517.19;4452289;32;33217;-83
2022/01/13 00:26:21;;;;;;;;;;;;;;;-2.50;60.90;101513.38;4455751;32;34182;-84
2022/01/13 00:28:51;;;;;;;;;;;;;;;-2.45;60.76;101517.12;4458650;32;33972;-84
2022/01/13 00:31:24;;;;;;;;;;;;;;;-2.37;60.83;101523.59;4461943;32;33922;-85
2022/01/13 00:33:55;;;;;;;;;;;;;;;-2.45;61.56;101512.91;4460532;32;33584;-84
2022/01/13 00:36:23;;;;;;;;;;;;;;;-2.28;61.31;101508.09;4460476;32;33929;-84
2022/01/13 00:38:51;;;;;;;;;;;;;;;-2.26;61.34;101507.41;4454885;32;34881;-84
2022/01/13 00:41:20;;;;;;;;;;;;;;;-2.17;61.29;101510.59;4452367;32;34074;-84
2022/01/13 00:43:48;;;;;;;;;;;;;;;-2.10;61.00;101513.53;4452699;32;32430;-84
2022/01/13 00:46:23;;;;;;;;;;;;;;;-2.29;61.53;101519.94;4449587;32;33780;-85
2022/01/13 00:48:53;;;;;;;;;;;;;;;-2.19;61.13;101516.34;4455128;32;34267;-84
2022/01/13 00:51:23;;;;;;;;;;;;;;;-2.02;60.67;101522.56;4445956;32;33356;-84
2022/01/13 00:53:55;;;;;;;;;;;;;;;-1.95;60.40;101515.44;4451898;32;33826;-84
2022/01/13 00:56:23;;;;;;;;;;;;;;;-1.91;60.31;101528.34;4458242;32;33064;-85
2022/01/13 00:58:52;;;;;;;;;;;;;;;-1.69;59.60;101533.19;4468760;32;32797;-84
2022/01/13 01:01:20;;;;;;;;;;;;;;;-1.90;60.45;101543.72;4462302;32;32778;-85
2022/01/13 01:03:49;;;;;;;;;;;;;;;-2.01;60.74;101540.44;4455925;32;33180;-84
2022/01/13 01:06:20;;;;;;;;;;;;;;;-1.87;60.55;101546.47;4448611;32;34873;-84
2022/01/13 01:08:48;;;;;;;;;;;;;;;-1.76;60.24;101540.44;4448224;32;33967;-85
2022/01/13 01:11:17;;;;;;;;;;;;;;;-1.76;60.13;101537.03;4469252;31;34184;-84
2022/01/13 01:13:48;;;;;;;;;;;;;;;-1.71;59.88;101533.12;4480369;31;31904;-84
2022/01/13 01:16:18;;;;;;;;;;;;;;;-1.47;59.16;101531.28;4488126;31;34074;-84
2022/01/13 01:18:54;;;;;;;;;;;;;;;-1.54;59.27;101539.31;4479435;31;33801;-84
2022/01/13 01:21:53;;;;;;;;;;;;;;;-1.54;59.45;101542.72;4479399;31;33795;-84
2022/01/13 01:27:16;;;;;;;;;;;;;;;-1.53;59.19;101553.78;4479678;32;34478;-84
2022/01/13 01:29:53;;;;;;;;;;;;;;;-1.60;59.39;101554.16;4486445;31;35131;-85
2022/01/13 01:32:22;;;;;;;;;;;;;;;-1.69;59.74;101539.19;4495049;31;34369;-84
2022/01/13 01:34:55;;;;;;;;;;;;;;;-1.77;60.02;101543.75;4481641;31;33378;-84
2022/01/13 01:37:26;;;;;;;;;;;;;;;-1.77;59.76;101547.97;4481254;32;34888;-85
2022/01/13 01:39:55;;;;;;;;;;;;;;;-1.73;59.71;101534.66;4481065;31;34989;-85
2022/01/13 01:42:24;;;;;;;;;;;;;;;-1.77;59.92;101527.59;4480982;32;34676;-84
2022/01/13 01:44:55;;;;;;;;;;;;;;;-1.69;59.71;101541.72;4487678;31;33634;-84
2022/01/13 01:47:25;;;;;;;;;;;;;;;-1.48;59.28;101536.25;4480630;31;34938;-84
2022/01/13 01:49:56;;;;;;;;;;;;;;;-1.70;59.80;101549.25;4481101;31;34601;-85
2022/01/13 01:52:27;;;;;;;;;;;;;;;-1.72;60.05;101536.41;4480987;31;34820;-85
2022/01/13 01:54:55;;;;;;;;;;;;;;;-1.78;60.21;101541.13;4494379;31;33090;-83
2022/01/13 01:57:24;;;;;;;;;;;;;;;-1.74;59.97;101546.53;4500035;31;34473;-85
2022/01/13 01:59:54;;;;;;;;;;;;;;;-1.77;60.01;101550.50;4493340;31;33890;-84
2022/01/13 02:02:26;;;;;;;;;;;;;;;-2.10;60.92;101552.56;4481238;31;34361;-84
2022/01/13 02:04:55;;;;;;;;;;;;;;;-1.75;59.67;101554.91;4483068;31;32506;-85
2022/01/13 02:07:23;;;;;;;;;;;;;;;-1.96;59.91;101550.94;4488205;31;34688;-85
2022/01/13 02:09:54;;;;;;;;;;;;;;;-2.11;60.13;101553.34;4488961;31;34198;-85
2022/01/13 02:12:37;;;;;;;;;;;;;;;-1.83;59.43;101547.56;4493229;31;33582;-84
2022/01/13 02:15:28;;;;;;;;;;;;;;;-1.90;59.56;101551.34;4496661;31;32855;-84
2022/01/13 02:17:57;;;;;;;;;;;;;;;-1.95;59.09;101543.41;4481095;32;34626;-84
2022/01/13 02:20:29;;;;;;;;;;;;;;;-2.04;59.67;101547.88;4479330;32;34352;-85
2022/01/13 02:22:57;;;;;;;;;;;;;;;-1.94;59.06;101539.22;4479396;31;34368;-85
2022/01/13 02:25:43;;;;;;;;;;;;;;;-2.03;59.19;101536.03;4480388;31;32727;-84
2022/01/13 02:28:12;;;;;;;;;;;;;;;-2.20;59.09;101534.91;4487416;31;33498;-84
2022/01/13 02:30:40;;;;;;;;;;;;;;;-2.26;59.62;101540.47;4484925;31;34849;-84
2022/01/13 02:33:08;;;;;;;;;;;;;;;-2.07;59.28;101544.28;4483393;31;34784;-84
2022/01/13 02:35:38;;;;;;;;;;;;;;;-2.28;60.04;101551.31;4489191;31;34038;-84
2022/01/13 02:38:10;;;;;;;;;;;;;;;-2.13;59.89;101556.56;4484481;31;33933;-84
2022/01/13 02:40:39;;;;;;;;;;;;;;;-2.28;60.19;101557.28;4485241;31;34092;-84
2022/01/13 02:43:08;;;;;;;;;;;;;;;-2.39;61.37;101555.69;4501489;31;33504;-84
2022/01/13 02:45:39;;;;;;;;;;;;;;;-2.21;61.28;101556.03;4488254;31;34117;-85
2022/01/13 02:48:26;;;;;;;;;;;;;;;-2.18;60.95;101538.44;4492623;31;33757;-85
2022/01/13 02:50:56;;;;;;;;;;;;;;;-2.42;61.08;101537.66;4462416;32;33484;-84
2022/01/13 02:53:25;;;;;;;;;;;;;;;-2.18;60.43;101534.22;4479339;32;35938;-84
2022/01/13 02:55:56;;;;;;;;;;;;;;;-2.13;60.48;101536.22;4486580;31;34144;-84
2022/01/13 02:58:25;;;;;;;;;;;;;;;-2.45;61.15;101530.69;4494671;31;33750;-84
2022/01/13 03:00:53;;;;;;;;;;;;;;;-2.43;61.17;101521.53;4486540;31;34966;-84
2022/01/13 03:03:21;;;;;;;;;;;;;;;-2.60;61.62;101517.81;4496418;31;33780;-84
2022/01/13 03:05:50;;;;;;;;;;;;;;;-2.17;60.07;101530.06;4489465;31;34010;-84
2022/01/13 03:08:20;;;;;;;;;;;;;;;-2.04;59.85;101539.38;4485287;31;34738;-84
2022/01/13 03:10:48;;;;;;;;;;;;;;;-2.04;59.79;101540.25;4480522;31;34651;-85
2022/01/13 03:13:21;;;;;;;;;;;;;;;-2.21;60.44;101543.31;4480474;32;34270;-85
2022/01/13 03:15:50;;;;;;;;;;;;;;;-2.32;60.95;101545.16;4480540;31;33434;-84
2022/01/13 03:18:20;;;;;;;;;;;;;;;-2.43;61.40;101540.97;4480246;32;33861;-84
2022/01/13 03:20:48;;;;;;;;;;;;;;;-2.19;60.70;101550.28;4483988;32;34269;-84
2022/01/13 03:23:18;;;;;;;;;;;;;;;-1.89;59.59;101560.75;4479695;32;34373;-84
2022/01/13 03:25:48;;;;;;;;;;;;;;;-2.06;59.99;101571.44;4489735;31;33042;-84
2022/01/13 03:28:27;;;;;;;;;;;;;;;-2.30;60.89;101569.00;4483112;31;34868;-85
2022/01/13 03:30:56;;;;;;;;;;;;;;;-1.97;59.21;101569.53;4488786;31;35109;-84
2022/01/13 03:33:25;;;;;;;;;;;;;;;-2.12;58.87;101574.47;4483291;31;34052;-84
2022/01/13 03:35:53;;;;;;;;;;;;;;;-2.29;58.78;101569.91;4499637;31;32652;-84
2022/01/13 03:38:22;;;;;;;;;;;;;;;-2.14;59.02;101578.56;4479396;31;32682;-84
2022/01/13 03:40:51;;;;;;;;;;;;;;;-2.16;58.98;101575.91;4495333;31;33530;-85
2022/01/13 03:43:20;;;;;;;;;;;;;;;-2.54;60.09;101572.37;4497779;31;34766;-84
2022/01/13 03:45:49;;;;;;;;;;;;;;;-2.60;60.92;101573.72;4490643;31;33948;-84
2022/01/13 03:48:17;;;;;;;;;;;;;;;-2.42;60.61;101558.84;4495747;31;33803;-84
2022/01/13 03:50:45;;;;;;;;;;;;;;;-2.29;60.34;101563.16;4482472;31;34305;-84
2022/01/13 03:53:47;;;;;;;;;;;;;;;-2.46;60.63;101554.38;4495994;31;33962;-85
2022/01/13 03:56:34;;;;;;;;;;;;;;;-2.24;59.73;101555.84;4492128;31;33197;-84
2022/01/13 03:59:37;;;;;;;;;;;;;;;-2.24;59.95;101549.09;4479489;32;34447;-84
2022/01/13 04:02:07;;;;;;;;;;;;;;;-2.26;60.09;101555.72;4436107;32;34260;-84
2022/01/13 04:04:37;;;;;;;;;;;;;;;-2.26;60.04;101570.09;4443305;32;34033;-85
2022/01/13 04:07:12;;;;;;;;;;;;;;;-2.05;59.14;101561.38;4448413;32;33104;-84
2022/01/13 04:10:12;;;;;;;;;;;;;;;-2.14;59.00;101550.59;4444037;32;33996;-84
2022/01/13 04:12:40;;;;;;;;;;;;;;;-2.48;59.80;101549.94;4437115;32;32486;-85
2022/01/13 04:15:12;;;;;;;;;;;;;;;-2.36;59.79;101559.28;4430969;32;33713;-85
2022/01/13 04:17:42;;;;;;;;;;;;;;;-2.38;60.08;101559.97;4431756;32;32927;-84
2022/01/13 04:20:11;;;;;;;;;;;;;;;-2.40;59.96;101552.22;4433235;32;33778;-85
2022/01/13 04:22:39;;;;;;;;;;;;;;;-2.21;59.47;101558.59;4430003;32;34074;-84
2022/01/13 04:25:08;;;;;;;;;;;;;;;-2.13;59.23;101539.63;4442981;32;33750;-84
2022/01/13 04:27:41;;;;;;;;;;;;;;;-2.39;59.39;101527.72;4446111;32;32905;-83
2022/01/13 04:32:57;;;;;;;;;;;;;;;-2.30;59.55;101509.66;4446113;32;34204;-84
2022/01/13 04:35:25;;;;;;;;;;;;;;;-2.26;59.27;101512.50;4480290;32;34051;-85
2022/01/13 04:37:55;;;;;;;;;;;;;;;-2.11;59.17;101510.09;4479143;32;33404;-84
2022/01/13 04:40:23;;;;;;;;;;;;;;;-2.20;59.51;101506.94;4484248;32;34709;-84
2022/01/13 04:42:55;;;;;;;;;;;;;;;-2.67;60.82;101510.56;4479731;31;33747;-84
2022/01/13 04:45:24;;;;;;;;;;;;;;;-2.50;60.65;101514.25;4485285;31;34184;-84
2022/01/13 04:47:54;;;;;;;;;;;;;;;-2.85;61.73;101511.81;4479432;31;32923;-84
2022/01/13 04:50:25;;;;;;;;;;;;;;;-2.37;60.62;101515.97;4480150;32;34930;-84
2022/01/13 04:52:53;;;;;;;;;;;;;;;-2.42;60.27;101508.03;4484358;32;36127;-84
2022/01/13 04:55:27;;;;;;;;;;;;;;;-2.35;59.89;101519.50;4480189;31;34616;-84
2022/01/13 04:57:58;;;;;;;;;;;;;;;-2.42;59.75;101520.72;4488417;31;33596;-84
2022/01/13 05:00:45;;;;;;;;;;;;;;;-2.17;59.08;101524.97;4479701;31;33684;-84
2022/01/13 05:03:14;;;;;;;;;;;;;;;-2.36;59.82;101518.63;4478679;32;34273;-85
2022/01/13 05:05:43;;;;;;;;;;;;;;;-2.50;60.25;101521.00;4479966;31;34760;-84
2022/01/13 05:08:12;;;;;;;;;;;;;;;-2.36;60.37;101530.47;4493856;31;33128;-83
2022/01/13 05:10:40;;;;;;;;;;;;;;;-2.45;60.39;101537.44;4456721;31;782556;-84
2022/01/13 05:13:10;;;;;;;;;;;;;;;-2.34;60.08;101531.44;4479038;32;34881;-84
2022/01/13 05:15:41;;;;;;;;;;;;;;;-2.44;59.91;101540.09;4482062;31;32351;-84
2022/01/13 05:18:18;;;;;;;;;;;;;;;-2.44;59.61;101541.75;4488102;31;32869;-87
2022/01/13 05:20:51;;;;;;;;;;;;;;;-2.63;60.35;101544.69;4479282;31;34264;-84
2022/01/13 05:23:20;;;;;;;;;;;;;;;-2.52;60.34;101560.66;4487591;31;34653;-84
2022/01/13 05:25:48;;;;;;;;;;;;;;;-2.61;60.35;101556.72;4478781;31;34130;-86
2022/01/13 05:28:16;;;;;;;;;;;;;;;-2.14;58.92;101570.94;4479141;32;33265;-85
2022/01/13 05:30:45;;;;;;;;;;;;;;;-2.28;59.13;101571.66;4479006;31;34147;-84
2022/01/13 05:33:13;;;;;;;;;;;;;;;-2.26;59.25;101568.44;4479474;31;33932;-84
2022/01/13 05:35:42;;;;;;;;;;;;;;;-2.40;59.79;101567.47;4484419;31;34032;-84
2022/01/13 05:38:12;;;;;;;;;;;;;;;-2.64;60.64;101574.28;4471528;31;31360;-84
2022/01/13 05:40:40;;;;;;;;;;;;;;;-2.43;60.66;101572.34;4472792;32;31818;-84
2022/01/13 05:43:08;;;;;;;;;;;;;;;-2.44;61.21;101582.41;4478252;31;34930;-84
2022/01/13 05:45:39;;;;;;;;;;;;;;;-2.47;61.72;101567.81;4463917;31;33412;-84
2022/01/13 05:48:08;;;;;;;;;;;;;;;-2.45;62.25;101567.94;4484171;32;33343;-84
2022/01/13 05:50:36;;;;;;;;;;;;;;;-2.49;62.78;101564.31;4479072;32;33854;-85
2022/01/13 05:53:05;;;;;;;;;;;;;;;-2.12;61.91;101571.06;4478634;31;34355;-84
2022/01/13 05:55:35;;;;;;;;;;;;;;;-2.09;62.10;101569.59;4481308;31;34707;-84
2022/01/13 05:58:03;;;;;;;;;;;;;;;-2.35;62.87;101560.16;4485693;31;32721;-84
2022/01/13 06:00:32;;;;;;;;;;;;;;;-2.41;63.33;101554.69;4486814;31;34085;-84
2022/01/13 06:03:01;;;;;;;;;;;;;;;-2.40;63.48;101554.75;4482356;31;34828;-84
2022/01/13 06:05:30;;;;;;;;;;;;;;;-2.12;63.23;101565.97;4481927;31;33111;-84
2022/01/13 06:07:58;;;;;;;;;;;;;;;-2.18;63.37;101558.78;4479216;31;33343;-87
2022/01/13 06:10:28;;;;;;;;;;;;;;;-1.87;62.91;101561.72;4479482;31;34087;-84
2022/01/13 06:12:58;;;;;;;;;;;;;;;-1.92;63.28;101555.47;4481015;31;35893;-84
2022/01/13 06:15:26;;;;;;;;;;;;;;;-1.89;63.61;101573.47;4498130;31;33974;-84
2022/01/13 06:17:55;;;;;;;;;;;;;;;-1.84;63.66;101555.97;4484104;31;34188;-84
2022/01/13 06:20:26;;;;;;;;;;;;;;;-1.68;63.56;101557.88;4482330;31;33947;-84
2022/01/13 06:22:55;;;;;;;;;;;;;;;-1.54;63.15;101555.44;4483088;31;34238;-82
2022/01/13 06:25:23;;;;;;;;;;;;;;;-1.65;63.37;101546.22;4483378;31;33967;-83
2022/01/13 06:27:52;;;;;;;;;;;;;;;-1.53;63.59;101543.59;4486464;31;33147;-83
2022/01/13 06:30:41;;;;;;;;;;;;;;;-1.65;63.99;101536.03;4486252;31;34072;-82
2022/01/13 06:33:10;;;;;;;;;;;;;;;-1.48;63.64;101537.12;4488324;31;33329;-83
2022/01/13 06:35:38;;;;;;;;;;;;;;;-1.46;63.53;101535.59;4493216;31;33873;-83
2022/01/13 06:38:06;;;;;;;;;;;;;;;-1.57;64.21;101551.81;4483937;31;32712;-82
2022/01/13 06:40:35;;;;;;;;;;;;;;;-1.51;64.18;101552.22;4494478;31;33898;-83
2022/01/13 06:43:03;;;;;;;;;;;;;;;-1.62;64.44;101554.09;4490677;31;33645;-83
2022/01/13 06:45:31;;;;;;;;;;;;;;;-1.58;64.82;101556.03;4487071;31;34012;-83
2022/01/13 06:48:02;;;;;;;;;;;;;;;-1.48;64.77;101554.09;4488516;31;34000;-83
2022/01/13 06:50:30;;;;;;;;;;;;;;;-1.31;64.43;101546.75;4469849;31;33458;-84
2022/01/13 06:52:59;;;;;;;;;;;;;;;-1.18;64.17;101540.78;4485980;31;34190;-84
2022/01/13 06:55:27;;;;;;;;;;;;;;;-1.18;64.17;101545.87;4481331;31;34042;-85
2022/01/13 06:57:56;;;;;;;;;;;;;;;-0.98;63.57;101542.03;4480490;31;34057;-84
2022/01/13 07:00:24;;;;;;;;;;;;;;;-0.98;63.67;101547.16;4494324;31;34200;-83
2022/01/13 07:02:58;;;;;;;;;;;;;;;-1.05;64.20;101549.22;4476404;32;33658;-83
2022/01/13 07:05:29;;;;;;;;;;;;;;;-1.10;64.50;101551.47;4492495;31;34099;-83
2022/01/13 07:07:58;;;;;;;;;;;;;;;-1.08;64.66;101542.25;4479214;31;32920;-83
2022/01/13 07:10:26;;;;;;;;;;;;;;;-1.04;64.73;101545.87;4479596;31;33913;-83
2022/01/13 07:12:55;;;;;;;;;;;;;;;-1.16;65.06;101553.59;4480577;31;34021;-83
2022/01/13 07:15:28;;;;;;;;;;;;;;;-1.03;64.92;101543.44;4485416;32;34098;-83
2022/01/13 07:17:56;;;;;;;;;;;;;;;-1.07;64.95;101547.44;4483492;31;34383;-83
2022/01/13 07:20:26;;;;;;;;;;;;;;;-0.90;64.49;101552.72;4486558;31;33836;-83
2022/01/13 07:22:56;;;;;;;;;;;;;;;-1.01;65.14;101553.72;4485385;31;33967;-83
2022/01/13 07:25:24;;;;;;;;;;;;;;;-0.80;64.67;101561.81;4481042;32;33883;-83
2022/01/13 07:27:52;;;;;;;;;;;;;;;-1.16;66.23;101562.16;4484237;32;32899;-83
2022/01/13 07:30:21;;;;;;;;;;;;;;;-0.86;65.41;101567.41;4479994;32;34158;-83
2022/01/13 07:32:49;;;;;;;;;;;;;;;-0.82;65.19;101564.28;4480928;32;34121;-83
2022/01/13 07:35:18;;;;;;;;;;;;;;;-0.77;65.18;101560.34;4478722;32;34067;-83
2022/01/13 07:37:46;;;;;;;;;;;;;;;-0.59;64.70;101573.34;4484604;32;33652;-83
2022/01/13 07:40:17;;;;;;;;;;;;;;;-0.64;65.13;101577.28;4479492;31;34818;-83
2022/01/13 07:42:46;;;;;;;;;;;;;;;-0.56;65.07;101582.84;4477601;31;34220;-83
2022/01/13 07:45:16;;;;;;;;;;;;;;;-0.43;65.06;101575.19;4479182;31;34745;-83
2022/01/13 07:47:44;;;;;;;;;;;;;;;-0.28;64.60;101577.78;4485920;31;34044;-83
2022/01/13 07:50:13;;;;;;;;;;;;;;;-0.31;65.39;101580.16;4485332;31;33552;-84
2022/01/13 07:52:44;;;;;;;;;;;;;;;-0.34;65.89;101579.97;4487052;31;34241;-84
2022/01/13 07:55:13;;;;;;;;;;;;;;;-0.23;65.70;101591.69;4485119;31;34610;-83
2022/01/13 07:57:42;;;;;;;;;;;;;;;-0.44;66.58;101589.59;4486376;31;33269;-84
2022/01/13 08:00:12;;;;;;;;;;;;;;;-0.26;66.37;101592.41;4484224;32;34202;-84
2022/01/13 08:02:41;;;;;;;;;;;;;;;-0.22;66.34;101588.34;4479717;32;32872;-84
2022/01/13 08:05:10;;;;;;;;;;;;;;;0.12;65.57;101581.06;4478930;32;34931;-84
2022/01/13 08:07:38;;;;;;;;;;;;;;;0.18;65.72;101583.09;4479496;32;32884;-84
2022/01/13 08:10:07;;;;;;;;;;;;;;;-0.07;66.60;101586.75;4480605;32;34797;-84
2022/01/13 08:12:35;;;;;;;;;;;;;;;-0.35;67.78;101580.75;4488944;31;33926;-84
2022/01/13 08:15:07;;;;;;;;;;;;;;;-0.35;67.98;101584.19;4487370;31;34144;-84
2022/01/13 08:20:22;;;;;;;;;;;;;;;0.12;66.62;101590.38;4493152;31;33463;-83
2022/01/13 08:22:50;;;;;;;;;;;;;;;-0.02;67.65;101589.56;4495838;31;34351;-84
2022/01/13 08:25:19;;;;;;;;;;;;;;;0.07;68.04;101599.44;4490335;31;33821;-84
2022/01/13 08:27:47;;;;;;;;;;;;;;;0.17;67.75;101597.53;4493331;31;33328;-84
2022/01/13 08:30:17;;;;;;;;;;;;;;;0.41;66.97;101597.19;4479025;32;34027;-84
2022/01/13 08:32:45;;;;;;;;;;;;;;;0.20;68.04;101604.50;4481173;31;33586;-84
2022/01/13 08:35:14;;;;;;;;;;;;;;;0.64;66.54;101599.41;4490951;31;34663;-84
2022/01/13 08:37:43;;;;;;;;;;;;;;;0.62;66.70;101601.00;4487747;31;32994;-84
2022/01/13 08:40:12;;;;;;;;;;;;;;;0.61;66.88;101604.34;4488723;31;34129;-84
2022/01/13 08:42:41;;;;;;;;;;;;;;;0.66;67.30;101606.31;4479354;31;34327;-84
2022/01/13 08:45:11;;;;;;;;;;;;;;;0.92;66.47;101605.22;4480204;32;33855;-84
2022/01/13 08:47:40;;;;;;;;;;;;;;;0.81;66.64;101594.41;4480284;32;33674;-85
2022/01/13 08:50:10;;;;;;;;;;;;;;;1.21;65.65;101588.97;4481009;31;33116;-84
2022/01/13 08:52:38;;;;;;;;;;;;;;;1.22;65.88;101586.47;4484338;32;34252;-84
2022/01/13 08:55:10;;;;;;;;;;;;;;;1.09;66.07;101590.81;4483902;32;34033;-85
2022/01/13 08:57:38;;;;;;;;;;;;;;;1.19;66.24;101591.44;4490412;31;33243;-84
2022/01/13 09:00:07;;;;;;;;;;;;;;;0.94;67.19;101583.19;4495280;31;34140;-84
2022/01/13 09:02:42;;;;;;;;;;;;;;;1.13;67.18;101591.06;4485927;31;34297;-84
2022/01/13 09:05:11;;;;;;;;;;;;;;;1.34;66.25;101586.28;4482644;31;34639;-84
2022/01/13 09:07:39;;;;;;;;;;;;;;;1.05;67.46;101587.22;4483458;31;33267;-85
2022/01/13 09:10:08;;;;;;;;;;;;;;;1.03;67.69;101588.81;4479617;31;35090;-84
2022/01/13 09:12:37;;;;;;;;;;;;;;;1.19;67.39;101576.09;4485163;31;33895;-85
2022/01/13 09:15:16;;;;;;;;;;;;;;;1.30;67.28;101581.78;4480235;31;34644;-85
2022/01/13 09:17:51;;;;;;;;;;;;;;;1.49;66.87;101583.66;4482578;32;34088;-85
2022/01/13 09:20:19;;;;;;;;;;;;;;;1.70;66.01;101569.47;4481453;31;34175;-85
2022/01/13 09:22:48;;;;;;;;;;;;;;;1.59;66.56;101585.91;4495585;31;34079;-86
2022/01/13 09:25:16;;;;;;;;;;;;;;;1.45;67.05;101576.63;4484286;31;34361;-84
2022/01/13 09:27:46;;;;;;;;;;;;;;;1.55;66.67;101573.78;4478884;31;33389;-85
2022/01/13 09:30:15;;;;;;;;;;;;;;;1.59;66.85;101578.22;4482500;31;34716;-85
2022/01/13 09:32:43;;;;;;;;;;;;;;;1.58;66.91;101578.16;4484932;31;34617;-85
2022/01/13 09:35:13;;;;;;;;;;;;;;;1.63;66.84;101590.41;4484497;31;34000;-85
2022/01/13 09:37:41;;;;;;;;;;;;;;;1.59;66.83;101588.47;4480090;32;32527;-85
2022/01/13 09:40:10;;;;;;;;;;;;;;;1.44;67.62;101585.09;4479221;31;34245;-85
2022/01/13 09:42:40;;;;;;;;;;;;;;;1.60;67.35;101590.25;4486029;31;34339;-85
2022/01/13 09:45:09;;;;;;;;;;;;;;;1.77;66.94;101590.28;4485402;31;34206;-85
2022/01/13 09:47:37;;;;;;;;;;;;;;;1.58;67.62;101585.84;4484068;31;33107;-86
2022/01/13 09:50:10;;;;;;;;;;;;;;;1.73;67.40;101589.22;4486309;31;34194;-85
2022/01/13 09:52:40;;;;;;;;;;;;;;;1.54;68.11;101579.66;4480034;31;34607;-86
2022/01/13 09:55:09;;;;;;;;;;;;;;;1.58;68.19;101585.84;4480562;31;32996;-85
2022/01/13 09:57:40;;;;;;;;;;;;;;;1.85;67.36;101578.75;4483796;31;33972;-86
2022/01/13 10:00:12;;;;;;;;;;;;;;;2.01;66.77;101567.62;4494181;31;34127;-86
2022/01/13 10:02:40;;;;;;;;;;;;;;;2.10;66.59;101555.28;4491148;31;33530;-85
2022/01/13 10:05:09;;;;;;;;;;;;;;;2.31;65.90;101560.62;4489517;31;34861;-85
2022/01/13 10:07:38;;;;;;;;;;;;;;;2.65;64.90;101552.91;4488761;31;33027;-86
2022/01/13 10:10:28;;;;;;;;;;;;;;;2.53;64.78;101553.19;4484308;31;34941;-85
2022/01/13 10:13:04;;;;;;;;;;;;;;;2.09;66.15;101558.66;4485864;31;34264;-85
2022/01/13 10:18:37;;;;;;;;;;;;;;;2.72;64.38;101560.09;4485964;32;33151;-85
2022/01/13 10:21:06;;;;;;;;;;;;;;;2.82;64.09;101551.16;4498701;31;34797;-85
2022/01/13 10:23:35;;;;;;;;;;;;;;;2.99;63.50;101545.16;4496721;31;34245;-86
2022/01/13 10:26:12;;;;;;;;;;;;;;;3.06;63.30;101542.91;4481780;31;34267;-86
2022/01/13 10:28:41;;;;;;;;;;;;;;;2.93;63.57;101544.88;4487240;31;33365;-85
2022/01/13 10:31:09;;;;;;;;;;;;;;;2.80;64.05;101546.78;4482718;31;34053;-85
2022/01/13 10:33:38;;;;;;;;;;;;;;;2.73;64.44;101553.28;4491322;31;34237;-86
2022/01/13 10:36:08;;;;;;;;;;;;;;;3.08;63.43;101556.66;4490142;31;34162;-86
2022/01/13 10:38:55;;;;;;;;;;;;;;;3.02;63.00;101554.72;4489365;31;33859;-86
2022/01/13 10:41:37;;;;;;;;;;;;;;;2.83;64.14;101540.12;4486116;31;33752;-85
2022/01/13 10:44:15;;;;;;;;;;;;;;;2.91;63.76;101533.66;4482821;31;34664;-86
2022/01/13 10:46:55;;;;;;;;;;;;;;;2.84;63.65;101531.63;4480798;31;33707;-84
2022/01/13 10:49:30;;;;;;;;;;;;;;;2.88;63.82;101525.84;4480237;32;33500;-85
2022/01/13 10:52:24;;;;;;;;;;;;;;;2.65;64.57;101526.41;4484527;31;34152;-84
2022/01/13 10:54:53;;;;;;;;;;;;;;;2.54;64.85;101520.78;4472093;31;34377;-85
2022/01/13 10:57:24;;;;;;;;;;;;;;;2.58;64.90;101516.69;4479502;31;33934;-85
2022/01/13 10:59:52;;;;;;;;;;;;;;;2.47;65.48;101518.72;4478135;32;34024;-85
2022/01/13 11:02:22;;;;;;;;;;;;;;;2.74;64.33;101509.81;4479067;32;33649;-85
2022/01/13 11:04:50;;;;;;;;;;;;;;;2.78;64.12;101498.03;4466564;32;33377;-85
2022/01/13 11:07:20;;;;;;;;;;;;;;;2.82;64.06;101501.59;4484334;32;33788;-85
2022/01/13 11:09:52;;;;;;;;;;;;;;;2.93;63.69;101503.88;4480386;32;32671;-85
2022/01/13 11:12:29;;;;;;;;;;;;;;;2.63;64.22;101513.53;4486515;31;34687;-85
2022/01/13 11:15:03;;;;;;;;;;;;;;;2.65;64.16;101503.34;4488143;31;34286;-84
2022/01/13 11:17:33;;;;;;;;;;;;;;;2.93;63.21;101500.44;4480611;32;34178;-84
2022/01/13 11:20:02;;;;;;;;;;;;;;;2.61;64.44;101506.56;4481547;31;33358;-85
2022/01/13 11:22:34;;;;;;;;;;;;;;;2.63;64.49;101507.53;4486848;31;34718;-84
2022/01/13 11:25:03;;;;;;;;;;;;;;;2.58;64.75;101501.31;4480752;32;33981;-84
2022/01/13 11:27:33;;;;;;;;;;;;;;;2.64;64.65;101502.47;4480801;32;34168;-84
2022/01/13 11:30:02;;;;;;;;;;;;;;;2.54;64.90;101490.91;4480707;32;32190;-84
2022/01/13 11:32:30;;;;;;;;;;;;;;;2.60;64.81;101485.19;4484440;31;33896;-83
2022/01/13 11:34:59;;;;;;;;;;;;;;;2.48;64.94;101487.19;4499120;31;33763;-84
2022/01/13 11:37:27;;;;;;;;;;;;;;;2.79;64.32;101479.28;4496262;31;34391;-85
2022/01/13 11:39:56;;;;;;;;;;;;;;;2.52;65.02;101483.97;4490221;31;34049;-84
2022/01/13 11:42:46;;;;;;;;;;;;;;;2.50;65.43;101489.00;4480051;32;33516;-84
2022/01/13 11:45:16;;;;;;;;;;;;;;;2.60;65.27;101477.50;4480429;32;34049;-85
2022/01/13 11:47:44;;;;;;;;;;;;;;;2.60;64.98;101481.75;4480239;32;34932;-85
2022/01/13 11:50:18;;;;;;;;;;;;;;;2.39;66.03;101492.72;4492191;31;33350;-84
2022/01/13 11:52:51;;;;;;;;;;;;;;;2.76;64.89;101486.81;4489740;31;35202;-85
2022/01/13 11:55:24;;;;;;;;;;;;;;;2.71;64.83;101484.03;4489699;31;32540;-84
2022/01/13 11:58:14;;;;;;;;;;;;;;;2.58;65.20;101470.56;4488981;31;34601;-84
2022/01/13 12:00:44;;;;;;;;;;;;;;;2.81;64.51;101475.09;4480343;32;32695;-84
2022/01/13 12:03:22;;;;;;;;;;;;;;;2.26;66.28;101475.88;4479659;32;33693;-84
2022/01/13 12:05:50;;;;;;;;;;;;;;;2.60;65.45;101467.25;4484899;32;34322;-85
2022/01/13 12:08:35;;;;;;;;;;;;;;;2.61;65.47;101466.47;4479654;32;33867;-85
2022/01/13 12:11:06;;;;;;;;;;;;;;;2.49;66.08;101458.19;4479670;32;35697;-86
2022/01/13 12:13:37;;;;;;;;;;;;;;;2.64;65.63;101483.69;4490499;31;34903;-85
2022/01/13 12:16:05;;;;;;;;;;;;;;;2.51;65.67;101479.62;4495917;31;34392;-84
2022/01/13 12:19:00;;;;;;;;;;;;;;;2.35;65.96;101472.91;4488702;31;34295;-84
2022/01/13 12:21:31;;;;;;;;;;;;;;;2.39;66.23;101467.09;4478371;32;33940;-85
2022/01/13 12:24:00;;;;;;;;;;;;;;;2.23;66.79;101470.63;4483704;31;34100;-84
2022/01/13 12:26:46;;;;;;;;;;;;;;;2.47;66.04;101470.06;4478577;32;33999;-86
2022/01/13 12:29:17;;;;;;;;;;;;;;;2.75;65.06;101477.34;4478804;32;34210;-85
2022/01/13 12:31:50;;;;;;;;;;;;;;;2.67;65.24;101468.44;4479276;32;33432;-85
2022/01/13 12:34:23;;;;;;;;;;;;;;;2.81;64.53;101471.66;4478900;32;33764;-84
2022/01/13 12:36:51;;;;;;;;;;;;;;;2.72;64.72;101470.41;4479806;32;32759;-84
2022/01/13 12:39:19;;;;;;;;;;;;;;;2.73;64.45;101455.91;4490674;31;33717;-84
2022/01/13 12:41:57;;;;;;;;;;;;;;;2.81;64.47;101444.34;4486734;31;34031;-85
2022/01/13 12:47:09;;;;;;;;;;;;;;;2.75;64.21;101433.78;4488390;31;35098;-85
2022/01/13 12:49:51;;;;;;;;;;;;;;;2.74;64.45;101427.78;4471534;31;33905;-84
2022/01/13 12:52:21;;;;;;;;;;;;;;;2.57;64.90;101423.56;4493256;31;33907;-84
2022/01/13 12:54:49;;;;;;;;;;;;;;;2.46;65.20;101428.16;4495152;31;34302;-85
2022/01/13 12:57:18;;;;;;;;;;;;;;;2.61;64.67;101434.81;4466483;32;33044;-85
2022/01/13 12:59:48;;;;;;;;;;;;;;;2.74;64.41;101453.41;4484419;31;34119;-84
2022/01/13 13:02:16;;;;;;;;;;;;;;;2.65;64.82;101470.91;4482561;31;33870;-85
2022/01/13 13:04:46;;;;;;;;;;;;;;;2.72;64.67;101464.41;4488095;31;34034;-85
2022/01/13 13:07:15;;;;;;;;;;;;;;;2.69;64.61;101474.53;4483925;31;33499;-85
2022/01/13 13:09:43;;;;;;;;;;;;;;;2.65;64.85;101475.16;4484864;31;34437;-84
2022/01/13 13:12:22;;;;;;;;;;;;;;;2.58;65.07;101468.00;4475990;32;34018;-86
2022/01/13 13:17:40;;;;;;;;;;;;;;;2.73;64.56;101458.47;4474135;31;34881;-85